This is the latest recevied weather packets stored in our database for station/object WA7ABU-29. If no packets are shown the sender has not sent any weather packets the latest 10 day(s).
| Time | Temp. | Humidity | Pressure | Rain* | Wind** | Luminosity | Snow |
|---|---|---|---|---|---|---|---|
| 1777068145 | 16.67° C | 38% | 995.6 hPa | 0 mm | - | - | - |
| 1777067214 | 16.11° C | 42% | 996.3 hPa | 0 mm | - | - | - |
| 1777066718 | 16.67° C | 43% | 996.3 hPa | 0 mm | - | - | - |
| 1777066100 | 16.67° C | 43% | 996.3 hPa | 0 mm | - | - | - |
| 1777065922 | 16.11° C | 39% | 996.3 hPa | 0 mm | - | - | - |
| 1777065665 | 16.11° C | 42% | 996.3 hPa | 0 mm | - | - | - |
| 1777064394 | 16.11° C | 49% | 996.3 hPa | 0 mm | - | - | - |
| 1777064216 | 16.11° C | 48% | 996.6 hPa | 0 mm | - | - | - |
| 1777063584 | 16.11° C | 46% | 996.6 hPa | 0 mm | - | - | - |
| 1777063563 | 16.67° C | 46% | 996.6 hPa | 0 mm | - | - | - |
| 1777062529 | 16.11° C | 42% | 996.3 hPa | 0 mm | - | - | - |
| 1777062281 | 16.11° C | 47% | 996.6 hPa | 0 mm | - | - | - |
| 1777062034 | 16.11° C | 43% | 996.6 hPa | 0 mm | - | - | - |
| 1777062012 | 16.11° C | 43% | 996.6 hPa | 0 mm | - | - | - |
| 1777059924 | 15° C | 52% | 997 hPa | 0 mm | - | - | - |
| 1777059025 | 16.11° C | 51% | 997.3 hPa | 0 mm | - | - | - |
| 1777058654 | 15° C | 60% | 997.3 hPa | 0 mm | - | - | - |
| 1777057787 | 15° C | 59% | 997.3 hPa | 0 mm | - | - | - |
| 1777057168 | 15° C | 59% | 997.6 hPa | 0 mm | - | - | - |
| 1777056301 | 15° C | 61% | 997.6 hPa | 0 mm | - | - | - |
| 1777055368 | 14.44° C | 63% | 998 hPa | 0 mm | - | - | - |
| 1777054469 | 13.89° C | 66% | 998 hPa | 0 mm | - | - | - |
| 1777053784 | 13.89° C | 60% | 998 hPa | 0 mm | - | - | - |
| 1777053040 | 12.78° C | 72% | 998 hPa | 0 mm | - | - | - |
| 1777052917 | 12.78° C | 69% | 998 hPa | 0 mm | - | - | - |
* Rain latest hour (hover to see other rain measurements)
** Current wind speed in m/s (hover to see current wind gust speed)